sensor_id;sensor_type;location;lat;lon;timestamp;P1;durP1;ratioP1;P2;durP2;ratioP2
44116;SDS011;29781;49.480;8.512;2024-01-30T00:00:41;18.80;;;12.77;;
44116;SDS011;29781;49.480;8.512;2024-01-30T00:03:07;21.17;;;14.27;;
44116;SDS011;29781;49.480;8.512;2024-01-30T00:05:32;23.45;;;15.05;;
44116;SDS011;29781;49.480;8.512;2024-01-30T00:07:58;22.98;;;14.88;;
44116;SDS011;29781;49.480;8.512;2024-01-30T00:10:23;22.42;;;14.15;;
44116;SDS011;29781;49.480;8.512;2024-01-30T00:12:49;21.23;;;13.38;;
44116;SDS011;29781;49.480;8.512;2024-01-30T00:15:14;22.20;;;14.85;;
44116;SDS011;29781;49.480;8.512;2024-01-30T00:17:40;21.67;;;13.52;;
44116;SDS011;29781;49.480;8.512;2024-01-30T00:20:06;22.13;;;13.63;;
44116;SDS011;29781;49.480;8.512;2024-01-30T00:22:33;22.85;;;13.68;;
44116;SDS011;29781;49.480;8.512;2024-01-30T00:24:59;20.17;;;12.75;;
44116;SDS011;29781;49.480;8.512;2024-01-30T00:27:25;19.42;;;12.23;;
44116;SDS011;29781;49.480;8.512;2024-01-30T00:29:52;21.75;;;12.35;;
44116;SDS011;29781;49.480;8.512;2024-01-30T00:32:18;20.70;;;12.30;;
44116;SDS011;29781;49.480;8.512;2024-01-30T00:34:44;18.27;;;12.10;;
44116;SDS011;29781;49.480;8.512;2024-01-30T00:37:09;17.30;;;11.85;;
44116;SDS011;29781;49.480;8.512;2024-01-30T00:39:35;19.75;;;11.75;;
44116;SDS011;29781;49.480;8.512;2024-01-30T00:42:01;20.08;;;12.05;;
44116;SDS011;29781;49.480;8.512;2024-01-30T00:44:26;23.20;;;12.55;;
44116;SDS011;29781;49.480;8.512;2024-01-30T00:46:52;19.00;;;12.45;;
44116;SDS011;29781;49.480;8.512;2024-01-30T00:49:17;20.20;;;12.88;;
44116;SDS011;29781;49.480;8.512;2024-01-30T00:51:43;18.20;;;12.30;;
44116;SDS011;29781;49.480;8.512;2024-01-30T00:54:08;18.73;;;12.30;;
44116;SDS011;29781;49.480;8.512;2024-01-30T00:56:34;17.95;;;11.93;;
44116;SDS011;29781;49.480;8.512;2024-01-30T00:58:59;22.00;;;11.98;;
44116;SDS011;29781;49.480;8.512;2024-01-30T01:01:25;20.50;;;12.52;;
44116;SDS011;29781;49.480;8.512;2024-01-30T01:03:50;21.08;;;13.10;;
44116;SDS011;29781;49.480;8.512;2024-01-30T01:06:16;24.75;;;13.05;;
44116;SDS011;29781;49.480;8.512;2024-01-30T01:08:41;23.20;;;14.95;;
44116;SDS011;29781;49.480;8.512;2024-01-30T01:11:07;29.65;;;15.77;;
44116;SDS011;29781;49.480;8.512;2024-01-30T01:13:32;23.40;;;14.95;;
44116;SDS011;29781;49.480;8.512;2024-01-30T01:15:58;24.65;;;13.13;;
44116;SDS011;29781;49.480;8.512;2024-01-30T01:18:23;20.75;;;12.77;;
44116;SDS011;29781;49.480;8.512;2024-01-30T01:20:49;24.52;;;12.82;;
44116;SDS011;29781;49.480;8.512;2024-01-30T01:23:14;21.27;;;12.80;;
44116;SDS011;29781;49.480;8.512;2024-01-30T01:25:40;19.35;;;13.02;;
44116;SDS011;29781;49.480;8.512;2024-01-30T01:28:05;23.10;;;12.35;;
44116;SDS011;29781;49.480;8.512;2024-01-30T01:30:31;26.42;;;13.45;;
44116;SDS011;29781;49.480;8.512;2024-01-30T01:32:56;19.13;;;12.23;;
44116;SDS011;29781;49.480;8.512;2024-01-30T01:35:25;20.48;;;12.75;;
44116;SDS011;29781;49.480;8.512;2024-01-30T01:37:51;20.20;;;13.07;;
44116;SDS011;29781;49.480;8.512;2024-01-30T01:40:26;25.05;;;12.05;;
44116;SDS011;29781;49.480;8.512;2024-01-30T01:42:52;19.23;;;11.98;;
44116;SDS011;29781;49.480;8.512;2024-01-30T01:45:20;19.80;;;12.98;;
44116;SDS011;29781;49.480;8.512;2024-01-30T01:47:55;18.60;;;11.70;;
44116;SDS011;29781;49.480;8.512;2024-01-30T01:50:21;16.77;;;11.40;;
44116;SDS011;29781;49.480;8.512;2024-01-30T01:52:48;18.00;;;11.88;;
44116;SDS011;29781;49.480;8.512;2024-01-30T01:55:14;21.80;;;12.02;;
44116;SDS011;29781;49.480;8.512;2024-01-30T01:57:42;21.05;;;12.25;;
44116;SDS011;29781;49.480;8.512;2024-01-30T02:00:08;18.60;;;10.95;;
44116;SDS011;29781;49.480;8.512;2024-01-30T02:02:35;21.30;;;11.80;;
44116;SDS011;29781;49.480;8.512;2024-01-30T02:05:02;16.00;;;11.93;;
44116;SDS011;29781;49.480;8.512;2024-01-30T02:07:28;19.58;;;11.85;;
44116;SDS011;29781;49.480;8.512;2024-01-30T02:09:54;19.30;;;11.77;;
44116;SDS011;29781;49.480;8.512;2024-01-30T02:12:20;20.58;;;12.13;;
44116;SDS011;29781;49.480;8.512;2024-01-30T02:14:46;19.27;;;11.38;;
44116;SDS011;29781;49.480;8.512;2024-01-30T02:17:12;19.77;;;12.57;;
44116;SDS011;29781;49.480;8.512;2024-01-30T02:19:39;18.98;;;11.75;;
44116;SDS011;29781;49.480;8.512;2024-01-30T02:22:05;18.40;;;12.68;;
44116;SDS011;29781;49.480;8.512;2024-01-30T02:24:31;20.80;;;14.13;;
44116;SDS011;29781;49.480;8.512;2024-01-30T02:26:57;20.10;;;13.63;;
44116;SDS011;29781;49.480;8.512;2024-01-30T02:29:22;21.35;;;13.65;;
44116;SDS011;29781;49.480;8.512;2024-01-30T02:31:48;21.60;;;13.68;;
44116;SDS011;29781;49.480;8.512;2024-01-30T02:34:13;21.00;;;13.90;;
44116;SDS011;29781;49.480;8.512;2024-01-30T02:36:42;20.65;;;13.45;;
44116;SDS011;29781;49.480;8.512;2024-01-30T02:39:08;18.20;;;12.70;;
44116;SDS011;29781;49.480;8.512;2024-01-30T02:41:34;20.63;;;12.73;;
44116;SDS011;29781;49.480;8.512;2024-01-30T02:44:00;23.55;;;13.90;;
44116;SDS011;29781;49.480;8.512;2024-01-30T02:46:26;22.60;;;14.02;;
44116;SDS011;29781;49.480;8.512;2024-01-30T02:48:52;22.17;;;13.00;;
44116;SDS011;29781;49.480;8.512;2024-01-30T02:51:17;25.10;;;14.45;;
44116;SDS011;29781;49.480;8.512;2024-01-30T02:53:43;24.33;;;15.02;;
44116;SDS011;29781;49.480;8.512;2024-01-30T02:56:08;22.95;;;15.02;;
44116;SDS011;29781;49.480;8.512;2024-01-30T02:58:35;23.92;;;14.73;;
44116;SDS011;29781;49.480;8.512;2024-01-30T03:01:01;27.15;;;16.50;;
44116;SDS011;29781;49.480;8.512;2024-01-30T03:03:27;27.45;;;16.75;;
44116;SDS011;29781;49.480;8.512;2024-01-30T03:05:53;26.95;;;16.63;;
44116;SDS011;29781;49.480;8.512;2024-01-30T03:08:19;25.27;;;15.90;;
44116;SDS011;29781;49.480;8.512;2024-01-30T03:10:44;26.80;;;16.30;;
44116;SDS011;29781;49.480;8.512;2024-01-30T03:13:10;30.27;;;17.55;;
44116;SDS011;29781;49.480;8.512;2024-01-30T03:15:35;27.25;;;17.35;;
44116;SDS011;29781;49.480;8.512;2024-01-30T03:18:02;26.10;;;16.30;;
44116;SDS011;29781;49.480;8.512;2024-01-30T03:20:28;25.92;;;17.55;;
44116;SDS011;29781;49.480;8.512;2024-01-30T03:22:54;28.52;;;16.23;;
44116;SDS011;29781;49.480;8.512;2024-01-30T03:25:21;26.40;;;14.93;;
44116;SDS011;29781;49.480;8.512;2024-01-30T03:27:46;24.23;;;15.25;;
44116;SDS011;29781;49.480;8.512;2024-01-30T03:30:12;25.67;;;15.55;;
44116;SDS011;29781;49.480;8.512;2024-01-30T03:32:37;25.75;;;15.55;;
44116;SDS011;29781;49.480;8.512;2024-01-30T03:35:03;22.08;;;13.77;;
44116;SDS011;29781;49.480;8.512;2024-01-30T03:37:29;22.17;;;13.68;;
44116;SDS011;29781;49.480;8.512;2024-01-30T03:39:54;20.67;;;12.10;;
44116;SDS011;29781;49.480;8.512;2024-01-30T03:42:20;20.83;;;11.50;;
44116;SDS011;29781;49.480;8.512;2024-01-30T03:44:47;18.33;;;10.40;;
44116;SDS011;29781;49.480;8.512;2024-01-30T03:47:13;17.58;;;10.27;;
44116;SDS011;29781;49.480;8.512;2024-01-30T03:49:38;17.33;;;9.98;;
44116;SDS011;29781;49.480;8.512;2024-01-30T03:52:04;17.27;;;10.63;;
44116;SDS011;29781;49.480;8.512;2024-01-30T03:54:29;15.43;;;9.82;;
44116;SDS011;29781;49.480;8.512;2024-01-30T03:56:55;13.38;;;9.63;;
44116;SDS011;29781;49.480;8.512;2024-01-30T03:59:20;15.48;;;9.52;;
44116;SDS011;29781;49.480;8.512;2024-01-30T04:01:49;15.95;;;9.90;;
44116;SDS011;29781;49.480;8.512;2024-01-30T04:04:16;18.73;;;10.60;;
44116;SDS011;29781;49.480;8.512;2024-01-30T04:06:42;14.60;;;10.15;;
44116;SDS011;29781;49.480;8.512;2024-01-30T04:09:08;16.77;;;10.30;;
44116;SDS011;29781;49.480;8.512;2024-01-30T04:11:34;14.50;;;10.00;;
44116;SDS011;29781;49.480;8.512;2024-01-30T04:13:59;17.77;;;10.07;;
44116;SDS011;29781;49.480;8.512;2024-01-30T04:16:25;14.75;;;9.68;;
44116;SDS011;29781;49.480;8.512;2024-01-30T04:18:51;17.35;;;10.38;;
44116;SDS011;29781;49.480;8.512;2024-01-30T04:21:17;13.70;;;9.15;;
44116;SDS011;29781;49.480;8.512;2024-01-30T04:23:42;18.20;;;10.35;;
44116;SDS011;29781;49.480;8.512;2024-01-30T04:26:08;14.57;;;9.73;;
44116;SDS011;29781;49.480;8.512;2024-01-30T04:28:34;15.05;;;9.55;;
44116;SDS011;29781;49.480;8.512;2024-01-30T04:30:59;14.10;;;9.15;;
44116;SDS011;29781;49.480;8.512;2024-01-30T04:33:24;16.85;;;9.85;;
44116;SDS011;29781;49.480;8.512;2024-01-30T04:35:50;13.80;;;9.32;;
44116;SDS011;29781;49.480;8.512;2024-01-30T04:38:16;17.10;;;9.32;;
44116;SDS011;29781;49.480;8.512;2024-01-30T04:40:42;13.52;;;9.13;;
44116;SDS011;29781;49.480;8.512;2024-01-30T04:43:08;15.48;;;9.30;;
44116;SDS011;29781;49.480;8.512;2024-01-30T04:45:33;12.95;;;9.07;;
44116;SDS011;29781;49.480;8.512;2024-01-30T04:47:59;12.40;;;8.85;;
44116;SDS011;29781;49.480;8.512;2024-01-30T04:50:24;12.73;;;9.18;;
44116;SDS011;29781;49.480;8.512;2024-01-30T04:52:51;15.13;;;10.18;;
44116;SDS011;29781;49.480;8.512;2024-01-30T04:55:17;17.48;;;10.70;;
44116;SDS011;29781;49.480;8.512;2024-01-30T04:57:42;15.65;;;10.02;;
44116;SDS011;29781;49.480;8.512;2024-01-30T05:00:08;15.02;;;10.43;;
44116;SDS011;29781;49.480;8.512;2024-01-30T05:02:34;15.40;;;11.05;;
44116;SDS011;29781;49.480;8.512;2024-01-30T05:05:00;17.73;;;11.25;;
44116;SDS011;29781;49.480;8.512;2024-01-30T05:07:25;19.80;;;11.20;;
44116;SDS011;29781;49.480;8.512;2024-01-30T05:09:51;15.95;;;10.35;;
44116;SDS011;29781;49.480;8.512;2024-01-30T05:12:16;15.50;;;11.05;;
44116;SDS011;29781;49.480;8.512;2024-01-30T05:14:42;20.50;;;10.70;;
44116;SDS011;29781;49.480;8.512;2024-01-30T05:17:07;15.60;;;10.95;;
44116;SDS011;29781;49.480;8.512;2024-01-30T05:19:35;18.92;;;10.82;;
44116;SDS011;29781;49.480;8.512;2024-01-30T05:22:00;17.50;;;11.25;;
44116;SDS011;29781;49.480;8.512;2024-01-30T05:24:26;19.17;;;11.02;;
44116;SDS011;29781;49.480;8.512;2024-01-30T05:26:51;17.98;;;10.65;;
44116;SDS011;29781;49.480;8.512;2024-01-30T05:29:17;24.25;;;11.15;;
44116;SDS011;29781;49.480;8.512;2024-01-30T05:31:43;21.05;;;11.50;;
44116;SDS011;29781;49.480;8.512;2024-01-30T05:34:08;19.30;;;11.07;;
44116;SDS011;29781;49.480;8.512;2024-01-30T05:36:34;18.42;;;11.25;;
44116;SDS011;29781;49.480;8.512;2024-01-30T05:39:00;22.30;;;12.32;;
44116;SDS011;29781;49.480;8.512;2024-01-30T05:41:25;22.02;;;11.82;;
44116;SDS011;29781;49.480;8.512;2024-01-30T05:43:51;18.60;;;11.40;;
44116;SDS011;29781;49.480;8.512;2024-01-30T05:46:16;19.23;;;11.23;;
44116;SDS011;29781;49.480;8.512;2024-01-30T05:48:42;17.45;;;11.45;;
44116;SDS011;29781;49.480;8.512;2024-01-30T05:51:07;18.27;;;11.40;;
44116;SDS011;29781;49.480;8.512;2024-01-30T05:53:33;16.88;;;11.18;;
44116;SDS011;29781;49.480;8.512;2024-01-30T05:56:01;19.60;;;12.00;;
44116;SDS011;29781;49.480;8.512;2024-01-30T05:58:27;19.00;;;11.32;;
44116;SDS011;29781;49.480;8.512;2024-01-30T06:00:53;17.95;;;11.00;;
44116;SDS011;29781;49.480;8.512;2024-01-30T06:03:18;18.65;;;11.32;;
44116;SDS011;29781;49.480;8.512;2024-01-30T06:05:44;19.73;;;11.07;;
44116;SDS011;29781;49.480;8.512;2024-01-30T06:08:09;19.85;;;11.90;;
44116;SDS011;29781;49.480;8.512;2024-01-30T06:10:35;20.50;;;12.15;;
44116;SDS011;29781;49.480;8.512;2024-01-30T06:13:00;17.98;;;12.25;;
44116;SDS011;29781;49.480;8.512;2024-01-30T06:15:26;18.95;;;12.43;;
44116;SDS011;29781;49.480;8.512;2024-01-30T06:17:51;19.80;;;11.90;;
44116;SDS011;29781;49.480;8.512;2024-01-30T06:20:17;16.98;;;11.30;;
44116;SDS011;29781;49.480;8.512;2024-01-30T06:22:43;19.55;;;12.82;;
44116;SDS011;29781;49.480;8.512;2024-01-30T06:25:08;19.75;;;13.07;;
44116;SDS011;29781;49.480;8.512;2024-01-30T06:27:34;21.20;;;12.90;;
44116;SDS011;29781;49.480;8.512;2024-01-30T06:30:01;19.38;;;12.52;;
44116;SDS011;29781;49.480;8.512;2024-01-30T06:32:26;18.80;;;12.27;;
44116;SDS011;29781;49.480;8.512;2024-01-30T06:34:53;21.90;;;12.70;;
44116;SDS011;29781;49.480;8.512;2024-01-30T06:37:19;18.92;;;12.25;;
44116;SDS011;29781;49.480;8.512;2024-01-30T06:39:44;22.80;;;12.07;;
44116;SDS011;29781;49.480;8.512;2024-01-30T06:42:10;17.33;;;11.95;;
44116;SDS011;29781;49.480;8.512;2024-01-30T06:44:36;18.45;;;11.65;;
44116;SDS011;29781;49.480;8.512;2024-01-30T06:47:02;17.85;;;11.90;;
44116;SDS011;29781;49.480;8.512;2024-01-30T06:49:27;18.33;;;11.23;;
44116;SDS011;29781;49.480;8.512;2024-01-30T06:51:53;22.88;;;12.07;;
44116;SDS011;29781;49.480;8.512;2024-01-30T06:54:18;18.00;;;10.98;;
44116;SDS011;29781;49.480;8.512;2024-01-30T06:56:44;18.67;;;11.43;;
44116;SDS011;29781;49.480;8.512;2024-01-30T06:59:09;20.15;;;12.50;;
44116;SDS011;29781;49.480;8.512;2024-01-30T07:01:35;20.10;;;12.52;;
44116;SDS011;29781;49.480;8.512;2024-01-30T07:04:00;17.88;;;11.32;;
44116;SDS011;29781;49.480;8.512;2024-01-30T07:06:26;18.30;;;11.43;;
44116;SDS011;29781;49.480;8.512;2024-01-30T07:08:51;20.85;;;11.57;;
44116;SDS011;29781;49.480;8.512;2024-01-30T07:11:21;21.73;;;12.55;;
44116;SDS011;29781;49.480;8.512;2024-01-30T07:13:47;19.33;;;11.70;;
44116;SDS011;29781;49.480;8.512;2024-01-30T07:16:13;21.45;;;12.63;;
44116;SDS011;29781;49.480;8.512;2024-01-30T07:18:39;19.58;;;12.52;;
44116;SDS011;29781;49.480;8.512;2024-01-30T07:21:05;16.77;;;11.65;;
44116;SDS011;29781;49.480;8.512;2024-01-30T07:23:30;17.75;;;12.18;;
44116;SDS011;29781;49.480;8.512;2024-01-30T07:25:56;20.80;;;11.90;;
44116;SDS011;29781;49.480;8.512;2024-01-30T07:28:21;21.13;;;12.13;;
44116;SDS011;29781;49.480;8.512;2024-01-30T07:30:47;17.83;;;11.55;;
44116;SDS011;29781;49.480;8.512;2024-01-30T07:33:13;20.20;;;11.95;;
44116;SDS011;29781;49.480;8.512;2024-01-30T07:35:39;20.45;;;13.48;;
44116;SDS011;29781;49.480;8.512;2024-01-30T07:38:04;18.83;;;12.23;;
44116;SDS011;29781;49.480;8.512;2024-01-30T07:40:30;22.27;;;13.48;;
44116;SDS011;29781;49.480;8.512;2024-01-30T07:42:55;24.88;;;13.75;;
44116;SDS011;29781;49.480;8.512;2024-01-30T07:45:21;20.27;;;12.27;;
44116;SDS011;29781;49.480;8.512;2024-01-30T07:47:49;18.05;;;12.27;;
44116;SDS011;29781;49.480;8.512;2024-01-30T07:50:15;22.30;;;12.77;;
44116;SDS011;29781;49.480;8.512;2024-01-30T07:52:40;20.50;;;12.38;;
44116;SDS011;29781;49.480;8.512;2024-01-30T07:55:06;18.08;;;12.10;;
44116;SDS011;29781;49.480;8.512;2024-01-30T07:57:33;20.45;;;12.63;;
44116;SDS011;29781;49.480;8.512;2024-01-30T07:59:59;23.73;;;12.27;;
44116;SDS011;29781;49.480;8.512;2024-01-30T08:02:25;24.27;;;13.15;;
44116;SDS011;29781;49.480;8.512;2024-01-30T08:04:50;18.20;;;11.82;;
44116;SDS011;29781;49.480;8.512;2024-01-30T08:07:16;21.80;;;12.45;;
44116;SDS011;29781;49.480;8.512;2024-01-30T08:09:42;21.60;;;13.48;;
44116;SDS011;29781;49.480;8.512;2024-01-30T08:12:08;23.98;;;12.60;;
44116;SDS011;29781;49.480;8.512;2024-01-30T08:14:34;18.23;;;12.25;;
44116;SDS011;29781;49.480;8.512;2024-01-30T08:16:59;19.35;;;12.45;;
44116;SDS011;29781;49.480;8.512;2024-01-30T08:19:25;20.85;;;12.98;;
44116;SDS011;29781;49.480;8.512;2024-01-30T08:21:50;20.63;;;13.35;;
44116;SDS011;29781;49.480;8.512;2024-01-30T08:24:16;23.33;;;13.05;;
44116;SDS011;29781;49.480;8.512;2024-01-30T08:26:47;21.67;;;12.73;;
44116;SDS011;29781;49.480;8.512;2024-01-30T08:29:13;22.90;;;14.40;;
44116;SDS011;29781;49.480;8.512;2024-01-30T08:31:38;21.70;;;13.68;;
44116;SDS011;29781;49.480;8.512;2024-01-30T08:34:04;24.10;;;13.02;;
44116;SDS011;29781;49.480;8.512;2024-01-30T08:36:29;19.92;;;12.45;;
44116;SDS011;29781;49.480;8.512;2024-01-30T08:38:55;17.80;;;11.85;;
44116;SDS011;29781;49.480;8.512;2024-01-30T08:41:23;22.38;;;13.60;;
44116;SDS011;29781;49.480;8.512;2024-01-30T08:43:49;21.30;;;12.93;;
44116;SDS011;29781;49.480;8.512;2024-01-30T08:46:17;23.30;;;12.75;;
44116;SDS011;29781;49.480;8.512;2024-01-30T08:48:43;22.15;;;13.48;;
44116;SDS011;29781;49.480;8.512;2024-01-30T08:51:09;18.90;;;12.05;;
44116;SDS011;29781;49.480;8.512;2024-01-30T08:53:34;21.95;;;13.40;;
44116;SDS011;29781;49.480;8.512;2024-01-30T08:56:04;21.40;;;13.38;;
44116;SDS011;29781;49.480;8.512;2024-01-30T08:58:31;22.30;;;14.05;;
44116;SDS011;29781;49.480;8.512;2024-01-30T09:00:57;20.63;;;13.63;;
44116;SDS011;29781;49.480;8.512;2024-01-30T09:03:23;18.45;;;13.15;;
44116;SDS011;29781;49.480;8.512;2024-01-30T09:05:49;18.15;;;12.45;;
44116;SDS011;29781;49.480;8.512;2024-01-30T09:08:14;20.30;;;12.10;;
44116;SDS011;29781;49.480;8.512;2024-01-30T09:10:40;21.15;;;13.02;;
44116;SDS011;29781;49.480;8.512;2024-01-30T09:13:06;24.80;;;13.80;;
44116;SDS011;29781;49.480;8.512;2024-01-30T09:15:31;20.23;;;13.82;;
44116;SDS011;29781;49.480;8.512;2024-01-30T09:17:57;20.35;;;13.18;;
44116;SDS011;29781;49.480;8.512;2024-01-30T09:20:22;19.38;;;13.70;;
44116;SDS011;29781;49.480;8.512;2024-01-30T09:22:48;21.52;;;12.68;;
44116;SDS011;29781;49.480;8.512;2024-01-30T09:25:14;21.15;;;13.30;;
44116;SDS011;29781;49.480;8.512;2024-01-30T09:27:40;19.55;;;12.73;;
44116;SDS011;29781;49.480;8.512;2024-01-30T09:30:05;19.08;;;13.15;;
44116;SDS011;29781;49.480;8.512;2024-01-30T09:32:32;19.90;;;13.48;;
44116;SDS011;29781;49.480;8.512;2024-01-30T09:34:57;20.77;;;13.63;;
44116;SDS011;29781;49.480;8.512;2024-01-30T09:37:23;19.90;;;12.52;;
44116;SDS011;29781;49.480;8.512;2024-01-30T09:39:49;22.08;;;11.88;;
44116;SDS011;29781;49.480;8.512;2024-01-30T09:42:36;18.73;;;12.07;;
44116;SDS011;29781;49.480;8.512;2024-01-30T09:45:01;21.33;;;12.70;;
44116;SDS011;29781;49.480;8.512;2024-01-30T09:47:31;18.65;;;11.75;;
44116;SDS011;29781;49.480;8.512;2024-01-30T09:50:08;19.90;;;12.02;;
44116;SDS011;29781;49.480;8.512;2024-01-30T09:52:35;19.30;;;11.65;;
44116;SDS011;29781;49.480;8.512;2024-01-30T09:55:01;20.08;;;11.70;;
44116;SDS011;29781;49.480;8.512;2024-01-30T09:57:27;17.65;;;11.75;;
44116;SDS011;29781;49.480;8.512;2024-01-30T09:59:53;20.17;;;12.88;;
44116;SDS011;29781;49.480;8.512;2024-01-30T10:02:21;19.33;;;12.18;;
44116;SDS011;29781;49.480;8.512;2024-01-30T10:04:47;18.98;;;12.40;;
44116;SDS011;29781;49.480;8.512;2024-01-30T10:07:14;17.92;;;12.20;;
44116;SDS011;29781;49.480;8.512;2024-01-30T10:09:40;18.13;;;12.13;;
44116;SDS011;29781;49.480;8.512;2024-01-30T10:12:05;22.52;;;13.20;;
44116;SDS011;29781;49.480;8.512;2024-01-30T10:14:32;22.98;;;12.32;;
44116;SDS011;29781;49.480;8.512;2024-01-30T10:16:58;20.17;;;12.95;;
44116;SDS011;29781;49.480;8.512;2024-01-30T10:19:24;19.48;;;12.27;;
44116;SDS011;29781;49.480;8.512;2024-01-30T10:21:50;21.50;;;12.63;;
44116;SDS011;29781;49.480;8.512;2024-01-30T10:24:16;19.48;;;13.18;;
44116;SDS011;29781;49.480;8.512;2024-01-30T10:26:43;22.23;;;14.13;;
44116;SDS011;29781;49.480;8.512;2024-01-30T10:29:09;19.80;;;12.95;;
44116;SDS011;29781;49.480;8.512;2024-01-30T10:31:34;21.85;;;13.40;;
44116;SDS011;29781;49.480;8.512;2024-01-30T10:34:00;19.60;;;12.80;;
44116;SDS011;29781;49.480;8.512;2024-01-30T10:36:28;18.95;;;12.55;;
44116;SDS011;29781;49.480;8.512;2024-01-30T10:41:26;23.83;;;13.45;;
44116;SDS011;29781;49.480;8.512;2024-01-30T10:43:57;23.30;;;12.88;;
44116;SDS011;29781;49.480;8.512;2024-01-30T10:46:28;22.92;;;12.82;;
44116;SDS011;29781;49.480;8.512;2024-01-30T10:48:57;17.88;;;12.73;;
44116;SDS011;29781;49.480;8.512;2024-01-30T10:51:27;20.55;;;12.93;;
44116;SDS011;29781;49.480;8.512;2024-01-30T10:53:53;18.15;;;12.63;;
44116;SDS011;29781;49.480;8.512;2024-01-30T10:56:20;20.77;;;13.02;;
44116;SDS011;29781;49.480;8.512;2024-01-30T10:58:47;22.95;;;11.68;;
44116;SDS011;29781;49.480;8.512;2024-01-30T11:01:22;20.05;;;13.40;;
44116;SDS011;29781;49.480;8.512;2024-01-30T11:03:52;19.23;;;11.88;;
44116;SDS011;29781;49.480;8.512;2024-01-30T11:06:22;19.52;;;12.80;;
44116;SDS011;29781;49.480;8.512;2024-01-30T11:09:04;18.08;;;12.82;;
44116;SDS011;29781;49.480;8.512;2024-01-30T11:11:48;18.58;;;12.90;;
44116;SDS011;29781;49.480;8.512;2024-01-30T11:14:14;20.40;;;13.85;;
44116;SDS011;29781;49.480;8.512;2024-01-30T11:16:42;21.50;;;12.52;;
44116;SDS011;29781;49.480;8.512;2024-01-30T11:19:11;20.48;;;13.18;;
44116;SDS011;29781;49.480;8.512;2024-01-30T11:21:43;23.02;;;13.80;;
44116;SDS011;29781;49.480;8.512;2024-01-30T11:24:08;20.52;;;14.02;;
44116;SDS011;29781;49.480;8.512;2024-01-30T11:26:34;18.17;;;13.57;;
44116;SDS011;29781;49.480;8.512;2024-01-30T11:29:03;23.27;;;13.43;;
44116;SDS011;29781;49.480;8.512;2024-01-30T11:31:32;19.75;;;12.98;;
44116;SDS011;29781;49.480;8.512;2024-01-30T11:33:57;19.67;;;13.65;;
44116;SDS011;29781;49.480;8.512;2024-01-30T11:36:25;21.42;;;13.27;;
44116;SDS011;29781;49.480;8.512;2024-01-30T11:38:51;21.77;;;13.13;;
44116;SDS011;29781;49.480;8.512;2024-01-30T11:41:17;22.95;;;13.55;;
44116;SDS011;29781;49.480;8.512;2024-01-30T11:43:43;19.38;;;13.60;;
44116;SDS011;29781;49.480;8.512;2024-01-30T11:46:16;21.85;;;12.43;;
44116;SDS011;29781;49.480;8.512;2024-01-30T11:48:41;23.13;;;14.00;;
44116;SDS011;29781;49.480;8.512;2024-01-30T11:51:07;25.75;;;13.35;;
44116;SDS011;29781;49.480;8.512;2024-01-30T11:53:32;19.92;;;13.15;;
44116;SDS011;29781;49.480;8.512;2024-01-30T11:55:58;21.20;;;13.90;;
44116;SDS011;29781;49.480;8.512;2024-01-30T11:58:24;20.15;;;13.60;;
44116;SDS011;29781;49.480;8.512;2024-01-30T12:00:54;21.23;;;14.82;;
44116;SDS011;29781;49.480;8.512;2024-01-30T12:03:20;19.85;;;13.10;;
44116;SDS011;29781;49.480;8.512;2024-01-30T12:05:46;22.50;;;13.35;;
44116;SDS011;29781;49.480;8.512;2024-01-30T12:08:15;22.48;;;12.63;;
44116;SDS011;29781;49.480;8.512;2024-01-30T12:10:50;19.83;;;12.77;;
44116;SDS011;29781;49.480;8.512;2024-01-30T12:13:23;22.80;;;13.60;;
44116;SDS011;29781;49.480;8.512;2024-01-30T12:15:50;21.75;;;13.80;;
44116;SDS011;29781;49.480;8.512;2024-01-30T12:18:18;18.55;;;13.43;;
44116;SDS011;29781;49.480;8.512;2024-01-30T12:20:44;22.65;;;14.15;;
44116;SDS011;29781;49.480;8.512;2024-01-30T12:23:11;19.63;;;13.10;;
44116;SDS011;29781;49.480;8.512;2024-01-30T12:25:39;18.15;;;13.32;;
44116;SDS011;29781;49.480;8.512;2024-01-30T12:28:05;20.38;;;13.05;;
44116;SDS011;29781;49.480;8.512;2024-01-30T12:30:31;19.60;;;13.85;;
44116;SDS011;29781;49.480;8.512;2024-01-30T12:32:56;24.55;;;14.13;;
44116;SDS011;29781;49.480;8.512;2024-01-30T12:35:23;20.17;;;13.85;;
44116;SDS011;29781;49.480;8.512;2024-01-30T12:37:48;19.20;;;13.82;;
44116;SDS011;29781;49.480;8.512;2024-01-30T12:40:15;18.10;;;12.85;;
44116;SDS011;29781;49.480;8.512;2024-01-30T12:42:42;21.33;;;13.98;;
44116;SDS011;29781;49.480;8.512;2024-01-30T12:45:08;22.50;;;14.50;;
44116;SDS011;29781;49.480;8.512;2024-01-30T12:47:34;19.73;;;14.02;;
44116;SDS011;29781;49.480;8.512;2024-01-30T12:50:00;22.75;;;13.23;;
44116;SDS011;29781;49.480;8.512;2024-01-30T12:52:26;20.80;;;14.18;;
44116;SDS011;29781;49.480;8.512;2024-01-30T12:54:51;23.30;;;14.43;;
44116;SDS011;29781;49.480;8.512;2024-01-30T12:57:17;20.85;;;13.57;;
44116;SDS011;29781;49.480;8.512;2024-01-30T12:59:43;27.35;;;14.30;;
44116;SDS011;29781;49.480;8.512;2024-01-30T13:02:10;19.75;;;13.57;;
44116;SDS011;29781;49.480;8.512;2024-01-30T13:04:37;21.48;;;14.07;;
44116;SDS011;29781;49.480;8.512;2024-01-30T13:07:02;19.30;;;13.38;;
44116;SDS011;29781;49.480;8.512;2024-01-30T13:09:29;18.48;;;12.18;;
44116;SDS011;29781;49.480;8.512;2024-01-30T13:11:56;16.38;;;12.18;;
44116;SDS011;29781;49.480;8.512;2024-01-30T13:14:22;17.83;;;12.93;;
44116;SDS011;29781;49.480;8.512;2024-01-30T13:16:47;22.42;;;13.55;;
44116;SDS011;29781;49.480;8.512;2024-01-30T13:19:13;17.92;;;12.57;;
44116;SDS011;29781;49.480;8.512;2024-01-30T13:21:38;17.25;;;12.23;;
44116;SDS011;29781;49.480;8.512;2024-01-30T13:24:13;20.80;;;12.73;;
44116;SDS011;29781;49.480;8.512;2024-01-30T13:26:39;18.45;;;12.27;;
44116;SDS011;29781;49.480;8.512;2024-01-30T13:29:04;18.90;;;12.32;;
44116;SDS011;29781;49.480;8.512;2024-01-30T13:31:30;17.92;;;12.18;;
44116;SDS011;29781;49.480;8.512;2024-01-30T13:33:55;16.08;;;12.10;;
44116;SDS011;29781;49.480;8.512;2024-01-30T13:36:21;15.13;;;11.00;;
44116;SDS011;29781;49.480;8.512;2024-01-30T13:38:47;18.42;;;10.73;;
44116;SDS011;29781;49.480;8.512;2024-01-30T13:41:13;18.85;;;11.57;;
44116;SDS011;29781;49.480;8.512;2024-01-30T13:43:38;15.43;;;11.65;;
44116;SDS011;29781;49.480;8.512;2024-01-30T13:46:04;22.67;;;11.77;;
44116;SDS011;29781;49.480;8.512;2024-01-30T13:48:30;16.80;;;10.82;;
44116;SDS011;29781;49.480;8.512;2024-01-30T13:51:05;17.58;;;11.55;;
44116;SDS011;29781;49.480;8.512;2024-01-30T13:53:31;15.57;;;10.50;;
44116;SDS011;29781;49.480;8.512;2024-01-30T13:55:56;19.90;;;11.40;;
44116;SDS011;29781;49.480;8.512;2024-01-30T13:58:22;19.17;;;12.00;;
44116;SDS011;29781;49.480;8.512;2024-01-30T14:00:47;16.85;;;12.07;;
44116;SDS011;29781;49.480;8.512;2024-01-30T14:03:14;21.08;;;12.00;;
44116;SDS011;29781;49.480;8.512;2024-01-30T14:05:39;16.25;;;11.13;;
44116;SDS011;29781;49.480;8.512;2024-01-30T14:08:05;15.85;;;10.77;;
44116;SDS011;29781;49.480;8.512;2024-01-30T14:10:32;16.17;;;10.68;;
44116;SDS011;29781;49.480;8.512;2024-01-30T14:12:58;19.52;;;10.93;;
44116;SDS011;29781;49.480;8.512;2024-01-30T14:15:23;15.85;;;9.98;;
44116;SDS011;29781;49.480;8.512;2024-01-30T14:17:48;18.27;;;10.80;;
44116;SDS011;29781;49.480;8.512;2024-01-30T14:20:15;17.70;;;11.15;;